createdAt,value
2022-10-01T00:03:35.321Z,100713.69
2022-10-01T00:07:41.731Z,100696.69
2022-10-01T00:11:43.164Z,100690.53
2022-10-01T00:15:44.654Z,100679.84
2022-10-01T00:19:46.031Z,100680.63
2022-10-01T00:23:48.400Z,100668.06
2022-10-01T00:27:49.887Z,100670.03
2022-10-01T00:31:51.357Z,100675.31
2022-10-01T00:35:56.420Z,100667.53
2022-10-01T00:39:57.836Z,100657.03
2022-10-01T00:44:01.628Z,100650.53
2022-10-01T00:48:03.140Z,100646.97
2022-10-01T00:52:08.803Z,100647.66
2022-10-01T00:56:10.385Z,100639.72
2022-10-01T01:00:13.752Z,100635.47
2022-10-01T01:04:17.803Z,100630.91
2022-10-01T01:08:19.381Z,100622.94
2022-10-01T01:13:03.112Z,100618.66
2022-10-01T01:17:12.571Z,100618.94
2022-10-01T01:21:28.181Z,100607.84
2022-10-01T01:25:39.804Z,100610.47
2022-10-01T01:29:43.474Z,100605.22
2022-10-01T01:33:47.976Z,100600.09
2022-10-01T01:37:58.409Z,100600.84
2022-10-01T01:42:05.180Z,100595.41
2022-10-01T01:46:10.548Z,100585.84
2022-10-01T01:50:14.459Z,100574.66
2022-10-01T01:54:16.909Z,100570.75
2022-10-01T01:58:19.730Z,100568.91
2022-10-01T02:02:26.854Z,100562.78
2022-10-01T02:07:09.526Z,100552.09
2022-10-01T02:11:38.046Z,100554.97
2022-10-01T02:15:48.618Z,100545.19
2022-10-01T02:19:57.109Z,100550.41
2022-10-01T02:24:40.657Z,100550.69
2022-10-01T02:28:42.894Z,100533.00
2022-10-01T02:32:46.791Z,100528.31
2022-10-01T02:36:49.699Z,100529.97
2022-10-01T02:40:56.029Z,100526.59
2022-10-01T02:45:02.381Z,100528.22
2022-10-01T02:49:04.400Z,100524.13
2022-10-01T02:53:10.373Z,100528.31
2022-10-01T02:57:26.849Z,100521.94
2022-10-01T03:01:28.332Z,100517.91
2022-10-01T03:05:29.850Z,100508.78
2022-10-01T03:09:32.459Z,100501.00
2022-10-01T03:13:34.298Z,100501.88
2022-10-01T03:17:37.168Z,100497.78
2022-10-01T03:21:38.599Z,100479.84
2022-10-01T03:25:39.990Z,100473.88
2022-10-01T03:29:41.436Z,100471.06
2022-10-01T03:33:42.849Z,100458.13
2022-10-01T03:37:44.307Z,100453.22
2022-10-01T03:41:46.087Z,100451.53
2022-10-01T03:45:47.606Z,100450.53
2022-10-01T03:49:49.104Z,100449.44
2022-10-01T03:53:50.527Z,100436.97
2022-10-01T03:57:52.095Z,100428.22
2022-10-01T04:01:54.412Z,100430.09
2022-10-01T04:05:56.082Z,100419.56
2022-10-01T04:09:57.506Z,100418.50
2022-10-01T04:13:59.021Z,100413.38
2022-10-01T04:18:03.664Z,100414.13
2022-10-01T04:22:05.053Z,100416.81
2022-10-01T04:26:07.509Z,100406.91
2022-10-01T04:30:10.163Z,100402.66
2022-10-01T04:34:11.624Z,100400.88
2022-10-01T04:38:17.104Z,100389.94
2022-10-01T04:42:19.048Z,100398.78
2022-10-01T04:46:20.601Z,100398.16
2022-10-01T04:50:24.553Z,100390.97
2022-10-01T04:54:25.997Z,100389.84
2022-10-01T04:58:27.449Z,100378.59
2022-10-01T05:02:29.335Z,100373.25
2022-10-01T05:06:30.823Z,100369.41
2022-10-01T05:10:32.287Z,100366.06
2022-10-01T05:14:34.013Z,100364.88
2022-10-01T05:18:35.439Z,100358.13
2022-10-01T05:22:36.867Z,100349.28
2022-10-01T05:26:38.881Z,100347.22
2022-10-01T05:30:40.292Z,100339.97
2022-10-01T05:34:41.697Z,100343.56
2022-10-01T05:38:43.298Z,100338.81
2022-10-01T05:42:47.939Z,100336.75
2022-10-01T05:46:50.440Z,100333.72
2022-10-01T05:50:51.937Z,100332.03
2022-10-01T05:54:53.600Z,100323.41
2022-10-01T05:58:55.054Z,100316.78
2022-10-01T06:03:00.993Z,100316.03
2022-10-01T06:07:02.500Z,100311.06
2022-10-01T06:11:04.479Z,100305.22
2022-10-01T06:15:06.393Z,100305.75
2022-10-01T06:19:07.856Z,100298.97
2022-10-01T06:23:12.363Z,100295.91
2022-10-01T06:27:13.930Z,100282.28
2022-10-01T06:31:15.406Z,100287.16
2022-10-01T06:35:16.833Z,100282.22
2022-10-01T06:39:18.311Z,100274.28
2022-10-01T06:43:19.922Z,100275.13
2022-10-01T06:47:21.517Z,100262.44
2022-10-01T06:51:43.079Z,100261.38
2022-10-01T06:55:46.112Z,100254.59
2022-10-01T06:59:47.599Z,100248.00
2022-10-01T07:03:49.016Z,100230.06
2022-10-01T07:07:51.001Z,100230.69
2022-10-01T07:11:53.082Z,100217.91
2022-10-01T07:15:54.501Z,100204.00
2022-10-01T07:19:55.909Z,100203.25
2022-10-01T07:23:57.354Z,100197.97
2022-10-01T07:28:04.500Z,100203.72
2022-10-01T07:32:08.757Z,100181.09
2022-10-01T07:36:12.972Z,100188.66
2022-10-01T07:40:16.383Z,100185.53
2022-10-01T07:44:18.911Z,100187.78
2022-10-01T07:48:20.413Z,100180.03
2022-10-01T07:52:21.930Z,100180.09
2022-10-01T07:56:23.395Z,100171.06
2022-10-01T08:00:26.871Z,100168.81
2022-10-01T08:04:46.911Z,100169.56
2022-10-01T08:08:48.424Z,100166.81
2022-10-01T08:12:49.926Z,100152.16
2022-10-01T08:16:51.422Z,100142.31
2022-10-01T08:20:52.896Z,100140.44
2022-10-01T08:24:54.561Z,100126.97
2022-10-01T08:28:56.068Z,100112.13
2022-10-01T08:32:59.796Z,100114.75
2022-10-01T08:37:01.518Z,100100.69
2022-10-01T08:41:23.372Z,100107.72
2022-10-01T08:45:47.264Z,100095.03
2022-10-01T08:49:53.586Z,100101.06
2022-10-01T08:54:16.985Z,100102.56
2022-10-01T08:58:29.280Z,100087.09
2022-10-01T09:02:33.695Z,100089.84
2022-10-01T09:06:37.644Z,100093.84
2022-10-01T09:10:45.595Z,100079.38
2022-10-01T09:15:21.689Z,100070.03
2022-10-01T09:19:54.168Z,100063.41
2022-10-01T09:24:04.105Z,100050.63
2022-10-01T09:28:16.396Z,100043.41
2022-10-01T09:32:23.584Z,100044.94
2022-10-01T09:36:46.724Z,100032.13
2022-10-01T09:40:58.301Z,100019.69
2022-10-01T09:44:59.935Z,100011.50
2022-10-01T09:49:20.062Z,100004.44
2022-10-01T09:53:25.039Z,99996.81
2022-10-01T09:57:33.570Z,100002.72
2022-10-01T10:01:46.133Z,99996.53
2022-10-01T10:05:49.208Z,99990.41
2022-10-01T10:09:52.252Z,99987.91
2022-10-01T10:14:03.764Z,99983.69
2022-10-01T10:18:08.956Z,99994.38
2022-10-01T10:22:13.408Z,99991.44
2022-10-01T10:26:20.889Z,99976.66
2022-10-01T10:30:26.269Z,99963.19
2022-10-01T10:34:33.686Z,99975.78
2022-10-01T10:38:35.646Z,99975.22
2022-10-01T10:42:38.785Z,99966.22
2022-10-01T10:46:45.328Z,99967.72
2022-10-01T10:50:47.561Z,99971.81
2022-10-01T10:54:50.936Z,99972.75
2022-10-01T10:58:53.696Z,99961.88
2022-10-01T11:02:58.764Z,99971.44
2022-10-01T11:07:03.442Z,99976.53
2022-10-01T11:11:13.970Z,99970.78
2022-10-01T11:15:22.755Z,99957.91
2022-10-01T11:19:33.879Z,99957.50
2022-10-01T11:24:09.393Z,99957.72
2022-10-01T11:28:28.445Z,99954.69
2022-10-01T11:32:35.626Z,99948.53
2022-10-01T11:36:56.097Z,99947.13
2022-10-01T11:41:19.772Z,99940.59
2022-10-01T11:45:26.755Z,99940.47
2022-10-01T11:49:45.197Z,99936.59
2022-10-01T11:53:54.914Z,99938.91
2022-10-01T11:58:17.358Z,99941.69
2022-10-01T12:02:39.624Z,99932.88
2022-10-01T12:06:52.207Z,99932.84
2022-10-01T12:10:59.972Z,99933.75
2022-10-01T12:15:20.075Z,99922.88
2022-10-01T12:19:24.912Z,99934.91
2022-10-01T12:23:30.673Z,99936.97
2022-10-01T12:27:41.211Z,99941.84
2022-10-01T12:31:50.588Z,99927.41
2022-10-01T12:36:07.660Z,99931.91
2022-10-01T12:40:11.993Z,99931.19
2022-10-01T12:44:33.572Z,99931.97
2022-10-01T12:48:57.879Z,99937.97
2022-10-01T12:53:24.760Z,99929.25
2022-10-01T12:57:54.285Z,99921.97
2022-10-01T13:02:39.369Z,99922.09
2022-10-01T13:07:13.012Z,99925.03
2022-10-01T13:11:20.489Z,99911.41
2022-10-01T13:15:31.864Z,99911.47
2022-10-01T13:19:48.049Z,99911.63
2022-10-01T13:24:01.350Z,99908.69
2022-10-01T13:28:12.477Z,99903.28
2022-10-01T13:32:27.578Z,99906.47
2022-10-01T13:36:34.911Z,99909.88
2022-10-01T13:40:36.589Z,99903.19
2022-10-01T13:44:40.659Z,99904.53
2022-10-01T13:48:47.944Z,99904.13
2022-10-01T13:52:51.096Z,99903.97
2022-10-01T13:56:52.529Z,99893.28
2022-10-01T14:00:56.280Z,99893.22
2022-10-01T14:05:07.974Z,99883.94
2022-10-01T14:09:20.079Z,99894.22
2022-10-01T14:13:40.240Z,99898.34
2022-10-01T14:17:43.348Z,99896.44
2022-10-01T14:22:02.879Z,99905.19
2022-10-01T14:26:18.050Z,99899.59
2022-10-01T14:30:38.061Z,99910.22
2022-10-01T14:35:01.368Z,99904.91
2022-10-01T14:39:23.366Z,99911.22
2022-10-01T14:43:30.092Z,99918.00
2022-10-01T14:47:35.574Z,99916.41
2022-10-01T14:51:52.677Z,99924.28
2022-10-01T14:55:57.812Z,99920.25
2022-10-01T15:00:01.821Z,99916.75
2022-10-01T15:04:14.443Z,99927.94
2022-10-01T15:08:24.756Z,99922.50
2022-10-01T15:12:26.205Z,99919.28
2022-10-01T15:16:28.789Z,99910.09
2022-10-01T15:20:30.638Z,99920.31
2022-10-01T15:24:45.373Z,99919.81
2022-10-01T15:28:46.950Z,99936.56
2022-10-01T15:32:49.909Z,99946.38
2022-10-01T15:36:53.127Z,99949.72
2022-10-01T15:41:13.945Z,99949.78
2022-10-01T15:45:38.782Z,99944.13
2022-10-01T15:50:12.424Z,99948.47
2022-10-01T15:54:35.214Z,99953.72
2022-10-01T15:59:11.150Z,99952.13
2022-10-01T16:03:36.036Z,99962.28
2022-10-01T16:07:58.183Z,99982.97
2022-10-01T16:12:04.349Z,99997.16
2022-10-01T16:16:17.303Z,100009.84
2022-10-01T16:20:21.584Z,100014.84
2022-10-01T16:24:28.395Z,100020.66
2022-10-01T16:28:33.116Z,100022.94
2022-10-01T16:32:34.962Z,100041.91
2022-10-01T16:36:38.200Z,100045.00
2022-10-01T16:40:44.704Z,100045.00
2022-10-01T16:44:46.176Z,100058.38
2022-10-01T16:48:49.589Z,100063.72
2022-10-01T16:52:55.668Z,100068.75
2022-10-01T16:56:59.130Z,100067.78
2022-10-01T17:01:06.539Z,100078.78
2022-10-01T17:05:29.405Z,100090.03
2022-10-01T17:09:31.167Z,100078.16
2022-10-01T17:13:33.836Z,100088.78
2022-10-01T17:17:35.339Z,100088.25
2022-10-01T17:21:36.767Z,100105.25
2022-10-01T17:25:39.491Z,100140.34
2022-10-01T17:29:40.919Z,100156.41
2022-10-01T17:33:42.921Z,100157.69
2022-10-01T17:37:44.348Z,100154.53
2022-10-01T17:41:45.917Z,100160.50
2022-10-01T17:45:55.749Z,100162.88
2022-10-01T17:49:58.257Z,100170.50
2022-10-01T17:54:02.416Z,100183.38
2022-10-01T17:58:04.110Z,100179.16
2022-10-01T18:02:23.674Z,100193.47
2022-10-01T18:06:29.435Z,100195.09
2022-10-01T18:10:30.849Z,100201.84
2022-10-01T18:14:32.319Z,100208.41
2022-10-01T18:22:55.808Z,100224.16
2022-10-01T18:26:57.219Z,100231.47
2022-10-01T18:31:10.714Z,100234.31
2022-10-01T18:35:25.113Z,100241.56
2022-10-01T18:39:44.784Z,100249.34
2022-10-01T18:43:46.802Z,100254.94
2022-10-01T18:47:58.744Z,100254.66
2022-10-01T18:52:17.725Z,100263.72
2022-10-01T18:56:34.577Z,100266.34
2022-10-01T19:00:54.214Z,100271.41
2022-10-01T19:05:14.568Z,100280.91
2022-10-01T19:09:21.620Z,100278.25
2022-10-01T19:13:57.068Z,100285.53
2022-10-01T19:18:24.063Z,100293.16
2022-10-01T19:22:53.029Z,100299.06
2022-10-01T19:27:27.948Z,100302.81
2022-10-01T19:31:54.163Z,100313.56
2022-10-01T19:35:59.364Z,100311.66
2022-10-01T19:40:12.988Z,100313.44
2022-10-01T19:44:44.780Z,100324.41
2022-10-01T19:49:13.157Z,100329.19
2022-10-01T19:53:22.923Z,100342.16
2022-10-01T19:57:29.371Z,100348.53
2022-10-01T20:01:45.197Z,100351.69
2022-10-01T20:05:52.971Z,100352.34
2022-10-01T20:10:09.387Z,100366.34
2022-10-01T20:14:44.881Z,100366.56
2022-10-01T20:19:11.135Z,100380.00
2022-10-01T20:23:38.205Z,100391.19
2022-10-01T20:27:49.282Z,100394.81
2022-10-01T20:32:13.821Z,100394.63
2022-10-01T20:36:27.606Z,100402.16
2022-10-01T20:40:35.069Z,100402.88
2022-10-01T20:44:38.078Z,100410.28
2022-10-01T20:48:44.524Z,100415.28
2022-10-01T20:53:24.793Z,100418.69
2022-10-01T20:57:38.102Z,100425.03
2022-10-01T21:01:50.458Z,100426.00
2022-10-01T21:06:03.281Z,100432.94
2022-10-01T21:10:17.043Z,100447.03
2022-10-01T21:14:21.858Z,100443.34
2022-10-01T21:18:47.870Z,100448.81
2022-10-01T21:23:22.860Z,100456.47
2022-10-01T21:27:36.653Z,100467.22
2022-10-01T21:31:51.043Z,100469.50
2022-10-01T21:36:01.243Z,100481.31
2022-10-01T21:40:17.561Z,100487.41
2022-10-01T21:44:46.254Z,100499.09
2022-10-01T21:49:07.388Z,100493.03
2022-10-01T21:53:37.658Z,100503.66
2022-10-01T21:58:01.555Z,100514.75
2022-10-01T22:02:24.230Z,100522.72
2022-10-01T22:06:37.840Z,100528.69
2022-10-01T22:10:45.482Z,100534.72
2022-10-01T22:14:51.320Z,100537.09
2022-10-01T22:18:59.979Z,100545.13
2022-10-01T22:23:08.542Z,100546.88
2022-10-01T22:27:48.626Z,100562.72
2022-10-01T22:31:56.326Z,100562.16
2022-10-01T22:36:06.572Z,100571.34
2022-10-01T22:40:24.566Z,100572.28
2022-10-01T22:44:27.669Z,100574.22
2022-10-01T22:49:00.036Z,100583.13
2022-10-01T22:53:23.240Z,100576.94
2022-10-01T22:57:27.728Z,100579.34
2022-10-01T23:02:00.023Z,100583.97
2022-10-01T23:06:35.219Z,100595.56
2022-10-01T23:11:03.004Z,100601.53
2022-10-01T23:15:04.437Z,100601.50
2022-10-01T23:19:41.375Z,100607.72
2022-10-01T23:23:54.237Z,100608.66
2022-10-01T23:28:16.261Z,100610.34
2022-10-01T23:33:12.801Z,100612.88
2022-10-01T23:37:37.301Z,100624.47
2022-10-01T23:41:49.047Z,100634.38
2022-10-01T23:46:07.125Z,100627.22
2022-10-01T23:50:20.523Z,100635.34
2022-10-01T23:54:44.528Z,100631.97
2022-10-01T23:58:56.187Z,100638.28
